sensor_id;sensor_type;location;lat;lon;timestamp;temperature;humidity
36446;DHT22;22472;50.848;-1.216;2022-08-23T00:02:05;20.30;99.90
36446;DHT22;22472;50.848;-1.216;2022-08-23T00:04:36;20.30;99.90
36446;DHT22;22472;50.848;-1.216;2022-08-23T00:07:06;20.30;99.90
36446;DHT22;22472;50.848;-1.216;2022-08-23T00:09:34;20.30;99.90
36446;DHT22;22472;50.848;-1.216;2022-08-23T00:12:10;20.40;99.90
36446;DHT22;22472;50.848;-1.216;2022-08-23T00:14:40;20.40;99.90
36446;DHT22;22472;50.848;-1.216;2022-08-23T00:17:09;20.30;99.90
36446;DHT22;22472;50.848;-1.216;2022-08-23T00:19:37;20.30;99.90
36446;DHT22;22472;50.848;-1.216;2022-08-23T00:22:05;20.30;99.90
36446;DHT22;22472;50.848;-1.216;2022-08-23T00:24:33;20.30;99.90
36446;DHT22;22472;50.848;-1.216;2022-08-23T00:27:02;20.30;99.90
36446;DHT22;22472;50.848;-1.216;2022-08-23T00:29:37;20.30;99.90
36446;DHT22;22472;50.848;-1.216;2022-08-23T00:32:07;20.30;99.90
36446;DHT22;22472;50.848;-1.216;2022-08-23T00:34:35;20.30;99.90
36446;DHT22;22472;50.848;-1.216;2022-08-23T00:37:03;20.30;99.90
36446;DHT22;22472;50.848;-1.216;2022-08-23T00:39:30;20.20;99.90
36446;DHT22;22472;50.848;-1.216;2022-08-23T00:41:59;20.20;99.90
36446;DHT22;22472;50.848;-1.216;2022-08-23T00:44:30;20.20;99.90
36446;DHT22;22472;50.848;-1.216;2022-08-23T00:47:17;20.20;99.90
36446;DHT22;22472;50.848;-1.216;2022-08-23T00:50:17;20.20;99.90
36446;DHT22;22472;50.848;-1.216;2022-08-23T00:52:52;20.10;99.90
36446;DHT22;22472;50.848;-1.216;2022-08-23T00:55:22;20.10;99.90
36446;DHT22;22472;50.848;-1.216;2022-08-23T00:57:50;20.10;99.90
36446;DHT22;22472;50.848;-1.216;2022-08-23T01:00:18;20.10;99.90
36446;DHT22;22472;50.848;-1.216;2022-08-23T01:02:48;20.10;99.90
36446;DHT22;22472;50.848;-1.216;2022-08-23T01:05:16;20.10;99.90
36446;DHT22;22472;50.848;-1.216;2022-08-23T01:07:47;20.10;99.90
36446;DHT22;22472;50.848;-1.216;2022-08-23T01:10:20;20.10;99.90
36446;DHT22;22472;50.848;-1.216;2022-08-23T01:12:53;20.00;99.90
36446;DHT22;22472;50.848;-1.216;2022-08-23T01:15:25;20.00;99.90
36446;DHT22;22472;50.848;-1.216;2022-08-23T01:17:59;20.00;99.90
36446;DHT22;22472;50.848;-1.216;2022-08-23T01:20:33;20.00;99.90
36446;DHT22;22472;50.848;-1.216;2022-08-23T01:23:04;20.00;99.90
36446;DHT22;22472;50.848;-1.216;2022-08-23T01:25:34;20.00;99.90
36446;DHT22;22472;50.848;-1.216;2022-08-23T01:28:03;19.90;99.90
36446;DHT22;22472;50.848;-1.216;2022-08-23T01:30:31;19.90;99.90
36446;DHT22;22472;50.848;-1.216;2022-08-23T01:33:00;19.90;99.90
36446;DHT22;22472;50.848;-1.216;2022-08-23T01:35:35;19.80;99.90
36446;DHT22;22472;50.848;-1.216;2022-08-23T01:38:03;19.80;99.90
36446;DHT22;22472;50.848;-1.216;2022-08-23T01:40:32;19.80;99.90
36446;DHT22;22472;50.848;-1.216;2022-08-23T01:43:00;19.80;99.90
36446;DHT22;22472;50.848;-1.216;2022-08-23T01:45:27;19.80;99.90
36446;DHT22;22472;50.848;-1.216;2022-08-23T01:47:54;19.80;99.90
36446;DHT22;22472;50.848;-1.216;2022-08-23T01:50:22;19.90;99.90
36446;DHT22;22472;50.848;-1.216;2022-08-23T01:52:49;19.90;99.90
36446;DHT22;22472;50.848;-1.216;2022-08-23T01:55:17;19.90;99.90
36446;DHT22;22472;50.848;-1.216;2022-08-23T01:57:46;19.90;99.90
36446;DHT22;22472;50.848;-1.216;2022-08-23T02:00:14;19.90;99.90
36446;DHT22;22472;50.848;-1.216;2022-08-23T02:02:41;19.90;99.90
36446;DHT22;22472;50.848;-1.216;2022-08-23T02:05:09;19.90;99.90
36446;DHT22;22472;50.848;-1.216;2022-08-23T02:07:55;19.90;99.90
36446;DHT22;22472;50.848;-1.216;2022-08-23T02:10:43;19.90;99.90
36446;DHT22;22472;50.848;-1.216;2022-08-23T02:13:11;19.90;99.90
36446;DHT22;22472;50.848;-1.216;2022-08-23T02:15:41;19.90;99.90
36446;DHT22;22472;50.848;-1.216;2022-08-23T02:18:09;19.90;99.90
36446;DHT22;22472;50.848;-1.216;2022-08-23T02:20:38;19.90;99.90
36446;DHT22;22472;50.848;-1.216;2022-08-23T02:23:09;19.90;99.90
36446;DHT22;22472;50.848;-1.216;2022-08-23T02:25:36;20.00;99.90
36446;DHT22;22472;50.848;-1.216;2022-08-23T02:28:03;20.00;99.90
36446;DHT22;22472;50.848;-1.216;2022-08-23T02:30:32;20.00;99.90
36446;DHT22;22472;50.848;-1.216;2022-08-23T02:32:59;20.10;99.90
36446;DHT22;22472;50.848;-1.216;2022-08-23T02:35:26;20.10;99.90
36446;DHT22;22472;50.848;-1.216;2022-08-23T02:37:53;20.00;99.90
36446;DHT22;22472;50.848;-1.216;2022-08-23T02:40:20;20.10;99.90
36446;DHT22;22472;50.848;-1.216;2022-08-23T02:42:47;20.10;99.90
36446;DHT22;22472;50.848;-1.216;2022-08-23T02:45:14;20.10;99.90
36446;DHT22;22472;50.848;-1.216;2022-08-23T02:47:44;20.10;99.90
36446;DHT22;22472;50.848;-1.216;2022-08-23T02:50:12;20.20;99.90
36446;DHT22;22472;50.848;-1.216;2022-08-23T02:52:39;20.20;99.90
36446;DHT22;22472;50.848;-1.216;2022-08-23T02:55:07;20.20;99.90
36446;DHT22;22472;50.848;-1.216;2022-08-23T02:57:34;20.20;99.90
36446;DHT22;22472;50.848;-1.216;2022-08-23T03:00:04;20.10;99.90
36446;DHT22;22472;50.848;-1.216;2022-08-23T03:02:31;20.10;99.90
36446;DHT22;22472;50.848;-1.216;2022-08-23T03:05:00;20.10;99.90
36446;DHT22;22472;50.848;-1.216;2022-08-23T03:07:27;20.00;99.90
36446;DHT22;22472;50.848;-1.216;2022-08-23T03:09:55;19.90;99.90
36446;DHT22;22472;50.848;-1.216;2022-08-23T03:12:22;19.80;99.90
36446;DHT22;22472;50.848;-1.216;2022-08-23T03:14:49;19.80;99.90
36446;DHT22;22472;50.848;-1.216;2022-08-23T03:17:17;19.70;99.90
36446;DHT22;22472;50.848;-1.216;2022-08-23T03:19:44;19.60;99.90
36446;DHT22;22472;50.848;-1.216;2022-08-23T03:22:13;19.60;99.90
36446;DHT22;22472;50.848;-1.216;2022-08-23T03:24:42;19.60;99.90
36446;DHT22;22472;50.848;-1.216;2022-08-23T03:27:10;19.60;99.90
36446;DHT22;22472;50.848;-1.216;2022-08-23T03:29:37;19.60;99.90
36446;DHT22;22472;50.848;-1.216;2022-08-23T03:32:05;19.60;99.90
36446;DHT22;22472;50.848;-1.216;2022-08-23T03:34:32;19.60;99.90
36446;DHT22;22472;50.848;-1.216;2022-08-23T03:37:00;19.60;99.90
36446;DHT22;22472;50.848;-1.216;2022-08-23T03:39:28;19.60;99.90
36446;DHT22;22472;50.848;-1.216;2022-08-23T03:41:56;19.60;99.90
36446;DHT22;22472;50.848;-1.216;2022-08-23T03:44:23;19.60;99.90
36446;DHT22;22472;50.848;-1.216;2022-08-23T03:46:50;19.60;99.90
36446;DHT22;22472;50.848;-1.216;2022-08-23T03:49:17;19.50;99.90
36446;DHT22;22472;50.848;-1.216;2022-08-23T03:51:44;19.40;99.90
36446;DHT22;22472;50.848;-1.216;2022-08-23T03:54:11;19.40;99.90
36446;DHT22;22472;50.848;-1.216;2022-08-23T03:56:50;19.30;99.90
36446;DHT22;22472;50.848;-1.216;2022-08-23T03:59:18;19.40;99.90
36446;DHT22;22472;50.848;-1.216;2022-08-23T04:01:45;19.30;99.90
36446;DHT22;22472;50.848;-1.216;2022-08-23T04:04:12;19.30;99.90
36446;DHT22;22472;50.848;-1.216;2022-08-23T04:06:39;19.30;99.90
36446;DHT22;22472;50.848;-1.216;2022-08-23T04:09:06;19.20;99.90
36446;DHT22;22472;50.848;-1.216;2022-08-23T04:11:33;19.20;99.90
36446;DHT22;22472;50.848;-1.216;2022-08-23T04:14:02;19.20;99.90
36446;DHT22;22472;50.848;-1.216;2022-08-23T04:16:29;19.10;99.90
36446;DHT22;22472;50.848;-1.216;2022-08-23T04:19:02;19.10;99.90
36446;DHT22;22472;50.848;-1.216;2022-08-23T04:21:29;19.10;99.90
36446;DHT22;22472;50.848;-1.216;2022-08-23T04:23:57;19.20;99.90
36446;DHT22;22472;50.848;-1.216;2022-08-23T04:26:24;19.10;99.90
36446;DHT22;22472;50.848;-1.216;2022-08-23T04:28:51;19.10;99.90
36446;DHT22;22472;50.848;-1.216;2022-08-23T04:31:20;19.10;99.90
36446;DHT22;22472;50.848;-1.216;2022-08-23T04:33:47;19.20;99.90
36446;DHT22;22472;50.848;-1.216;2022-08-23T04:36:14;19.20;99.90
36446;DHT22;22472;50.848;-1.216;2022-08-23T04:38:41;19.20;99.90
36446;DHT22;22472;50.848;-1.216;2022-08-23T04:41:08;19.20;99.90
36446;DHT22;22472;50.848;-1.216;2022-08-23T04:43:53;19.30;99.90
36446;DHT22;22472;50.848;-1.216;2022-08-23T04:46:22;19.30;99.90
36446;DHT22;22472;50.848;-1.216;2022-08-23T04:48:49;19.30;99.90
36446;DHT22;22472;50.848;-1.216;2022-08-23T04:51:16;19.30;99.90
36446;DHT22;22472;50.848;-1.216;2022-08-23T04:53:44;19.30;99.90
36446;DHT22;22472;50.848;-1.216;2022-08-23T04:56:11;19.30;99.90
36446;DHT22;22472;50.848;-1.216;2022-08-23T04:58:38;19.30;99.90
36446;DHT22;22472;50.848;-1.216;2022-08-23T05:01:07;19.30;99.90
36446;DHT22;22472;50.848;-1.216;2022-08-23T05:03:36;19.30;99.90
36446;DHT22;22472;50.848;-1.216;2022-08-23T05:06:05;19.30;99.90
36446;DHT22;22472;50.848;-1.216;2022-08-23T05:08:32;19.30;99.90
36446;DHT22;22472;50.848;-1.216;2022-08-23T05:11:00;19.30;99.90
36446;DHT22;22472;50.848;-1.216;2022-08-23T05:13:27;19.30;99.90
36446;DHT22;22472;50.848;-1.216;2022-08-23T05:15:54;19.30;99.90
36446;DHT22;22472;50.848;-1.216;2022-08-23T05:18:21;19.30;99.90
36446;DHT22;22472;50.848;-1.216;2022-08-23T05:20:50;19.30;99.90
36446;DHT22;22472;50.848;-1.216;2022-08-23T05:23:17;19.30;99.90
36446;DHT22;22472;50.848;-1.216;2022-08-23T05:25:44;19.30;99.90
36446;DHT22;22472;50.848;-1.216;2022-08-23T05:28:19;19.40;99.90
36446;DHT22;22472;50.848;-1.216;2022-08-23T05:30:53;19.40;99.90
36446;DHT22;22472;50.848;-1.216;2022-08-23T05:33:21;19.40;99.90
36446;DHT22;22472;50.848;-1.216;2022-08-23T05:35:50;19.40;99.90
36446;DHT22;22472;50.848;-1.216;2022-08-23T05:38:17;19.50;99.90
36446;DHT22;22472;50.848;-1.216;2022-08-23T05:40:47;19.40;99.90
36446;DHT22;22472;50.848;-1.216;2022-08-23T05:43:14;19.40;99.90
36446;DHT22;22472;50.848;-1.216;2022-08-23T05:45:42;19.30;99.90
36446;DHT22;22472;50.848;-1.216;2022-08-23T05:48:09;19.30;99.90
36446;DHT22;22472;50.848;-1.216;2022-08-23T05:50:37;19.30;99.90
36446;DHT22;22472;50.848;-1.216;2022-08-23T05:53:06;19.30;99.90
36446;DHT22;22472;50.848;-1.216;2022-08-23T05:55:34;19.30;99.90
36446;DHT22;22472;50.848;-1.216;2022-08-23T05:58:03;19.30;99.90
36446;DHT22;22472;50.848;-1.216;2022-08-23T06:00:30;19.30;99.90
36446;DHT22;22472;50.848;-1.216;2022-08-23T06:02:57;19.40;99.90
36446;DHT22;22472;50.848;-1.216;2022-08-23T06:05:24;19.40;99.90
36446;DHT22;22472;50.848;-1.216;2022-08-23T06:07:51;19.40;99.90
36446;DHT22;22472;50.848;-1.216;2022-08-23T06:10:19;19.50;99.90
36446;DHT22;22472;50.848;-1.216;2022-08-23T06:12:47;19.50;99.90
36446;DHT22;22472;50.848;-1.216;2022-08-23T06:15:14;19.50;99.90
36446;DHT22;22472;50.848;-1.216;2022-08-23T06:17:41;19.60;99.90
36446;DHT22;22472;50.848;-1.216;2022-08-23T06:20:09;19.60;99.90
36446;DHT22;22472;50.848;-1.216;2022-08-23T06:22:36;19.70;99.90
36446;DHT22;22472;50.848;-1.216;2022-08-23T06:25:04;19.70;99.90
36446;DHT22;22472;50.848;-1.216;2022-08-23T06:27:32;19.80;99.90
36446;DHT22;22472;50.848;-1.216;2022-08-23T06:29:59;19.90;99.90
36446;DHT22;22472;50.848;-1.216;2022-08-23T06:32:26;20.00;99.90
36446;DHT22;22472;50.848;-1.216;2022-08-23T06:34:53;20.00;99.90
36446;DHT22;22472;50.848;-1.216;2022-08-23T06:37:21;20.10;99.90
36446;DHT22;22472;50.848;-1.216;2022-08-23T06:39:48;20.20;99.90
36446;DHT22;22472;50.848;-1.216;2022-08-23T06:42:15;20.20;99.90
36446;DHT22;22472;50.848;-1.216;2022-08-23T06:44:43;20.30;99.90
36446;DHT22;22472;50.848;-1.216;2022-08-23T06:47:10;20.20;99.90
36446;DHT22;22472;50.848;-1.216;2022-08-23T06:49:37;20.20;99.90
36446;DHT22;22472;50.848;-1.216;2022-08-23T06:52:05;20.20;99.90
36446;DHT22;22472;50.848;-1.216;2022-08-23T06:54:34;20.20;99.90
36446;DHT22;22472;50.848;-1.216;2022-08-23T06:57:02;20.30;99.90
36446;DHT22;22472;50.848;-1.216;2022-08-23T06:59:29;20.30;99.90
36446;DHT22;22472;50.848;-1.216;2022-08-23T07:02:00;20.40;99.90
36446;DHT22;22472;50.848;-1.216;2022-08-23T07:04:29;20.40;99.90
36446;DHT22;22472;50.848;-1.216;2022-08-23T07:06:57;20.50;99.90
36446;DHT22;22472;50.848;-1.216;2022-08-23T07:09:26;20.50;99.90
36446;DHT22;22472;50.848;-1.216;2022-08-23T07:11:53;20.50;99.90
36446;DHT22;22472;50.848;-1.216;2022-08-23T07:14:21;20.50;99.90
36446;DHT22;22472;50.848;-1.216;2022-08-23T07:16:51;20.50;99.90
36446;DHT22;22472;50.848;-1.216;2022-08-23T07:19:24;20.60;99.90
36446;DHT22;22472;50.848;-1.216;2022-08-23T07:21:52;20.60;99.90
36446;DHT22;22472;50.848;-1.216;2022-08-23T07:24:20;20.60;99.90
36446;DHT22;22472;50.848;-1.216;2022-08-23T07:26:48;20.60;99.90
36446;DHT22;22472;50.848;-1.216;2022-08-23T07:29:17;20.60;99.90
36446;DHT22;22472;50.848;-1.216;2022-08-23T07:31:46;20.60;99.90
36446;DHT22;22472;50.848;-1.216;2022-08-23T07:34:14;20.60;99.90
36446;DHT22;22472;50.848;-1.216;2022-08-23T07:36:44;20.60;99.90
36446;DHT22;22472;50.848;-1.216;2022-08-23T07:39:13;20.60;99.90
36446;DHT22;22472;50.848;-1.216;2022-08-23T07:41:41;20.70;99.90
36446;DHT22;22472;50.848;-1.216;2022-08-23T07:44:09;20.80;99.90
36446;DHT22;22472;50.848;-1.216;2022-08-23T07:46:38;20.90;99.90
36446;DHT22;22472;50.848;-1.216;2022-08-23T07:49:06;20.90;99.90
36446;DHT22;22472;50.848;-1.216;2022-08-23T07:51:35;20.90;99.90
36446;DHT22;22472;50.848;-1.216;2022-08-23T07:54:06;20.90;99.90
36446;DHT22;22472;50.848;-1.216;2022-08-23T07:56:34;21.00;99.90
36446;DHT22;22472;50.848;-1.216;2022-08-23T07:59:01;21.00;99.90
36446;DHT22;22472;50.848;-1.216;2022-08-23T08:01:29;21.00;99.90
36446;DHT22;22472;50.848;-1.216;2022-08-23T08:03:58;21.00;99.90
36446;DHT22;22472;50.848;-1.216;2022-08-23T08:06:28;21.00;99.90
36446;DHT22;22472;50.848;-1.216;2022-08-23T08:08:56;21.00;99.90
36446;DHT22;22472;50.848;-1.216;2022-08-23T08:11:28;21.10;99.90
36446;DHT22;22472;50.848;-1.216;2022-08-23T08:13:56;21.20;99.90
36446;DHT22;22472;50.848;-1.216;2022-08-23T08:16:26;21.40;99.90
36446;DHT22;22472;50.848;-1.216;2022-08-23T08:18:54;21.50;99.90
36446;DHT22;22472;50.848;-1.216;2022-08-23T08:21:22;21.50;99.90
36446;DHT22;22472;50.848;-1.216;2022-08-23T08:23:49;21.70;99.90
36446;DHT22;22472;50.848;-1.216;2022-08-23T08:26:16;21.70;99.90
36446;DHT22;22472;50.848;-1.216;2022-08-23T08:28:45;21.70;99.90
36446;DHT22;22472;50.848;-1.216;2022-08-23T08:31:12;21.70;99.90
36446;DHT22;22472;50.848;-1.216;2022-08-23T08:33:39;21.80;99.90
36446;DHT22;22472;50.848;-1.216;2022-08-23T08:36:07;21.80;99.90
36446;DHT22;22472;50.848;-1.216;2022-08-23T08:38:38;21.80;99.90
36446;DHT22;22472;50.848;-1.216;2022-08-23T08:41:10;21.90;99.90
36446;DHT22;22472;50.848;-1.216;2022-08-23T08:43:51;21.90;99.90
36446;DHT22;22472;50.848;-1.216;2022-08-23T08:46:25;21.90;99.90
36446;DHT22;22472;50.848;-1.216;2022-08-23T08:48:57;21.90;99.90
36446;DHT22;22472;50.848;-1.216;2022-08-23T08:51:36;21.90;99.90
36446;DHT22;22472;50.848;-1.216;2022-08-23T08:54:10;21.90;99.90
36446;DHT22;22472;50.848;-1.216;2022-08-23T08:56:39;22.00;99.90
36446;DHT22;22472;50.848;-1.216;2022-08-23T08:59:12;22.00;99.90
36446;DHT22;22472;50.848;-1.216;2022-08-23T09:01:40;22.10;99.90
36446;DHT22;22472;50.848;-1.216;2022-08-23T09:04:07;22.10;99.90
36446;DHT22;22472;50.848;-1.216;2022-08-23T09:06:46;22.20;99.90
36446;DHT22;22472;50.848;-1.216;2022-08-23T09:09:28;22.40;99.90
36446;DHT22;22472;50.848;-1.216;2022-08-23T09:12:08;22.60;99.90
36446;DHT22;22472;50.848;-1.216;2022-08-23T09:14:52;22.70;99.90
36446;DHT22;22472;50.848;-1.216;2022-08-23T09:17:37;22.70;99.90
36446;DHT22;22472;50.848;-1.216;2022-08-23T09:20:08;22.70;99.90
36446;DHT22;22472;50.848;-1.216;2022-08-23T09:22:39;22.90;99.90
36446;DHT22;22472;50.848;-1.216;2022-08-23T09:25:07;23.00;99.90
36446;DHT22;22472;50.848;-1.216;2022-08-23T09:27:36;23.00;99.90
36446;DHT22;22472;50.848;-1.216;2022-08-23T09:30:06;23.20;99.90
36446;DHT22;22472;50.848;-1.216;2022-08-23T09:32:36;23.30;99.90
36446;DHT22;22472;50.848;-1.216;2022-08-23T09:35:06;23.50;99.90
36446;DHT22;22472;50.848;-1.216;2022-08-23T09:37:50;23.60;99.90
36446;DHT22;22472;50.848;-1.216;2022-08-23T09:40:24;23.70;99.90
36446;DHT22;22472;50.848;-1.216;2022-08-23T09:43:04;23.70;99.90
36446;DHT22;22472;50.848;-1.216;2022-08-23T09:45:33;23.60;99.90
36446;DHT22;22472;50.848;-1.216;2022-08-23T09:48:02;23.40;99.90
36446;DHT22;22472;50.848;-1.216;2022-08-23T09:50:31;23.20;99.90
36446;DHT22;22472;50.848;-1.216;2022-08-23T09:53:01;23.20;99.90
36446;DHT22;22472;50.848;-1.216;2022-08-23T09:55:31;23.20;99.90
36446;DHT22;22472;50.848;-1.216;2022-08-23T09:58:00;23.30;99.90
36446;DHT22;22472;50.848;-1.216;2022-08-23T10:00:29;23.40;99.90
36446;DHT22;22472;50.848;-1.216;2022-08-23T10:03:22;23.40;99.90
36446;DHT22;22472;50.848;-1.216;2022-08-23T10:05:52;23.40;99.90
36446;DHT22;22472;50.848;-1.216;2022-08-23T10:08:25;23.40;99.90
36446;DHT22;22472;50.848;-1.216;2022-08-23T10:10:57;23.40;99.90
36446;DHT22;22472;50.848;-1.216;2022-08-23T10:13:27;23.40;99.90
36446;DHT22;22472;50.848;-1.216;2022-08-23T10:16:03;23.40;99.90
36446;DHT22;22472;50.848;-1.216;2022-08-23T10:18:44;23.40;99.90
36446;DHT22;22472;50.848;-1.216;2022-08-23T10:21:20;23.30;99.90
36446;DHT22;22472;50.848;-1.216;2022-08-23T10:24:12;23.30;99.90
36446;DHT22;22472;50.848;-1.216;2022-08-23T10:26:45;23.30;99.90
36446;DHT22;22472;50.848;-1.216;2022-08-23T10:29:19;23.20;99.90
36446;DHT22;22472;50.848;-1.216;2022-08-23T10:32:16;23.20;99.90
36446;DHT22;22472;50.848;-1.216;2022-08-23T10:34:57;23.20;99.90
36446;DHT22;22472;50.848;-1.216;2022-08-23T10:37:45;23.10;99.90
36446;DHT22;22472;50.848;-1.216;2022-08-23T10:40:18;23.20;99.90
36446;DHT22;22472;50.848;-1.216;2022-08-23T10:43:00;23.20;99.90
36446;DHT22;22472;50.848;-1.216;2022-08-23T10:45:32;23.30;99.90
36446;DHT22;22472;50.848;-1.216;2022-08-23T10:48:11;23.40;99.90
36446;DHT22;22472;50.848;-1.216;2022-08-23T10:50:47;23.40;99.90
36446;DHT22;22472;50.848;-1.216;2022-08-23T10:53:17;23.60;99.90
36446;DHT22;22472;50.848;-1.216;2022-08-23T10:55:47;23.80;99.90
36446;DHT22;22472;50.848;-1.216;2022-08-23T10:58:35;23.80;99.90
36446;DHT22;22472;50.848;-1.216;2022-08-23T11:01:05;23.70;99.90
36446;DHT22;22472;50.848;-1.216;2022-08-23T11:03:36;23.60;99.90
36446;DHT22;22472;50.848;-1.216;2022-08-23T11:06:39;23.70;99.90
36446;DHT22;22472;50.848;-1.216;2022-08-23T11:12:15;23.70;99.90
36446;DHT22;22472;50.848;-1.216;2022-08-23T11:14:56;23.70;99.90
36446;DHT22;22472;50.848;-1.216;2022-08-23T11:17:27;23.70;99.90
36446;DHT22;22472;50.848;-1.216;2022-08-23T11:19:57;23.50;99.90
36446;DHT22;22472;50.848;-1.216;2022-08-23T11:22:27;23.60;99.90
36446;DHT22;22472;50.848;-1.216;2022-08-23T11:24:58;23.80;99.90
36446;DHT22;22472;50.848;-1.216;2022-08-23T11:27:31;23.80;99.90
36446;DHT22;22472;50.848;-1.216;2022-08-23T11:32:59;23.60;99.90
36446;DHT22;22472;50.848;-1.216;2022-08-23T11:35:36;23.60;99.90
36446;DHT22;22472;50.848;-1.216;2022-08-23T11:38:05;24.30;99.90
36446;DHT22;22472;50.848;-1.216;2022-08-23T11:40:57;25.30;99.90
36446;DHT22;22472;50.848;-1.216;2022-08-23T11:43:28;25.50;99.90
36446;DHT22;22472;50.848;-1.216;2022-08-23T11:46:27;25.50;99.90
36446;DHT22;22472;50.848;-1.216;2022-08-23T11:51:54;25.30;99.90
36446;DHT22;22472;50.848;-1.216;2022-08-23T11:54:41;25.60;99.90
36446;DHT22;22472;50.848;-1.216;2022-08-23T11:57:21;26.00;99.90
36446;DHT22;22472;50.848;-1.216;2022-08-23T12:02:56;27.00;99.90
36446;DHT22;22472;50.848;-1.216;2022-08-23T12:08:31;27.00;99.90
36446;DHT22;22472;50.848;-1.216;2022-08-23T12:11:04;27.50;99.90
36446;DHT22;22472;50.848;-1.216;2022-08-23T12:13:50;27.10;99.90
36446;DHT22;22472;50.848;-1.216;2022-08-23T12:16:35;27.10;99.90
36446;DHT22;22472;50.848;-1.216;2022-08-23T12:19:08;27.40;99.90
36446;DHT22;22472;50.848;-1.216;2022-08-23T12:21:43;27.00;99.90
36446;DHT22;22472;50.848;-1.216;2022-08-23T12:24:22;27.20;99.90
36446;DHT22;22472;50.848;-1.216;2022-08-23T12:27:09;27.10;99.90
36446;DHT22;22472;50.848;-1.216;2022-08-23T12:29:48;27.40;99.90
36446;DHT22;22472;50.848;-1.216;2022-08-23T12:32:22;27.60;99.90
36446;DHT22;22472;50.848;-1.216;2022-08-23T12:34:59;28.00;99.90
36446;DHT22;22472;50.848;-1.216;2022-08-23T12:37:35;28.00;99.90
36446;DHT22;22472;50.848;-1.216;2022-08-23T12:40:07;27.80;99.90
36446;DHT22;22472;50.848;-1.216;2022-08-23T12:42:39;28.10;99.90
36446;DHT22;22472;50.848;-1.216;2022-08-23T12:45:11;28.00;99.90
36446;DHT22;22472;50.848;-1.216;2022-08-23T12:47:40;28.00;99.90
36446;DHT22;22472;50.848;-1.216;2022-08-23T12:50:19;28.20;99.90
36446;DHT22;22472;50.848;-1.216;2022-08-23T12:52:56;28.60;99.90
36446;DHT22;22472;50.848;-1.216;2022-08-23T12:55:30;29.20;99.90
36446;DHT22;22472;50.848;-1.216;2022-08-23T12:57:59;29.30;99.90
36446;DHT22;22472;50.848;-1.216;2022-08-23T13:00:30;29.10;99.90
36446;DHT22;22472;50.848;-1.216;2022-08-23T13:03:00;29.20;99.90
36446;DHT22;22472;50.848;-1.216;2022-08-23T13:05:36;28.90;99.90
36446;DHT22;22472;50.848;-1.216;2022-08-23T13:08:08;28.70;99.90
36446;DHT22;22472;50.848;-1.216;2022-08-23T13:10:38;29.00;99.90
36446;DHT22;22472;50.848;-1.216;2022-08-23T13:13:10;29.30;99.90
36446;DHT22;22472;50.848;-1.216;2022-08-23T13:15:47;28.60;99.90
36446;DHT22;22472;50.848;-1.216;2022-08-23T13:18:31;28.30;99.90
36446;DHT22;22472;50.848;-1.216;2022-08-23T13:21:25;28.30;99.90
36446;DHT22;22472;50.848;-1.216;2022-08-23T13:23:55;28.40;99.90
36446;DHT22;22472;50.848;-1.216;2022-08-23T13:26:23;28.80;99.90
36446;DHT22;22472;50.848;-1.216;2022-08-23T13:29:05;29.10;99.90
36446;DHT22;22472;50.848;-1.216;2022-08-23T13:31:51;29.10;99.90
36446;DHT22;22472;50.848;-1.216;2022-08-23T13:34:32;29.00;99.90
36446;DHT22;22472;50.848;-1.216;2022-08-23T13:37:01;29.10;99.90
36446;DHT22;22472;50.848;-1.216;2022-08-23T13:39:30;29.60;99.90
36446;DHT22;22472;50.848;-1.216;2022-08-23T13:41:58;29.70;99.90
36446;DHT22;22472;50.848;-1.216;2022-08-23T13:44:26;29.70;99.90
36446;DHT22;22472;50.848;-1.216;2022-08-23T13:46:56;29.30;99.90
36446;DHT22;22472;50.848;-1.216;2022-08-23T13:49:25;28.70;99.90
36446;DHT22;22472;50.848;-1.216;2022-08-23T13:52:06;28.20;99.90
36446;DHT22;22472;50.848;-1.216;2022-08-23T13:54:34;28.40;99.90
36446;DHT22;22472;50.848;-1.216;2022-08-23T13:57:04;28.40;99.90
36446;DHT22;22472;50.848;-1.216;2022-08-23T13:59:36;28.40;99.90
36446;DHT22;22472;50.848;-1.216;2022-08-23T14:02:12;28.00;99.90
36446;DHT22;22472;50.848;-1.216;2022-08-23T14:04:41;28.00;99.90
36446;DHT22;22472;50.848;-1.216;2022-08-23T14:07:09;27.90;99.90
36446;DHT22;22472;50.848;-1.216;2022-08-23T14:09:37;28.00;99.90
36446;DHT22;22472;50.848;-1.216;2022-08-23T14:12:06;27.80;99.90
36446;DHT22;22472;50.848;-1.216;2022-08-23T14:14:36;27.60;99.90
36446;DHT22;22472;50.848;-1.216;2022-08-23T14:17:04;27.50;99.90
36446;DHT22;22472;50.848;-1.216;2022-08-23T14:19:32;27.40;99.90
36446;DHT22;22472;50.848;-1.216;2022-08-23T14:21:59;27.10;99.90
36446;DHT22;22472;50.848;-1.216;2022-08-23T14:24:27;26.90;99.90
36446;DHT22;22472;50.848;-1.216;2022-08-23T14:26:54;26.80;99.90
36446;DHT22;22472;50.848;-1.216;2022-08-23T14:29:23;27.00;99.90
36446;DHT22;22472;50.848;-1.216;2022-08-23T14:31:54;27.20;99.90
36446;DHT22;22472;50.848;-1.216;2022-08-23T14:34:21;27.10;99.90
36446;DHT22;22472;50.848;-1.216;2022-08-23T14:36:48;27.00;99.90
36446;DHT22;22472;50.848;-1.216;2022-08-23T14:39:16;27.00;99.90
36446;DHT22;22472;50.848;-1.216;2022-08-23T14:41:43;27.10;99.90
36446;DHT22;22472;50.848;-1.216;2022-08-23T14:44:10;26.80;99.90
36446;DHT22;22472;50.848;-1.216;2022-08-23T14:46:38;26.80;99.90
36446;DHT22;22472;50.848;-1.216;2022-08-23T14:49:07;26.50;99.90
36446;DHT22;22472;50.848;-1.216;2022-08-23T14:51:35;26.70;99.90
36446;DHT22;22472;50.848;-1.216;2022-08-23T14:54:05;26.80;99.90
36446;DHT22;22472;50.848;-1.216;2022-08-23T14:56:33;26.60;99.90
36446;DHT22;22472;50.848;-1.216;2022-08-23T14:59:00;26.80;99.90
36446;DHT22;22472;50.848;-1.216;2022-08-23T15:01:27;26.60;99.90
36446;DHT22;22472;50.848;-1.216;2022-08-23T15:03:54;26.80;99.90
36446;DHT22;22472;50.848;-1.216;2022-08-23T15:06:22;26.70;99.90
36446;DHT22;22472;50.848;-1.216;2022-08-23T15:08:49;26.80;99.90
36446;DHT22;22472;50.848;-1.216;2022-08-23T15:11:16;26.80;99.90
36446;DHT22;22472;50.848;-1.216;2022-08-23T15:13:44;26.80;99.90
36446;DHT22;22472;50.848;-1.216;2022-08-23T15:16:13;26.90;99.90
36446;DHT22;22472;50.848;-1.216;2022-08-23T15:18:43;26.90;99.90
36446;DHT22;22472;50.848;-1.216;2022-08-23T15:21:11;26.90;99.90
36446;DHT22;22472;50.848;-1.216;2022-08-23T15:23:41;26.80;99.90
36446;DHT22;22472;50.848;-1.216;2022-08-23T15:26:09;26.60;99.90
36446;DHT22;22472;50.848;-1.216;2022-08-23T15:28:37;26.40;99.90
36446;DHT22;22472;50.848;-1.216;2022-08-23T15:31:04;26.20;99.90
36446;DHT22;22472;50.848;-1.216;2022-08-23T15:33:31;25.90;99.90
36446;DHT22;22472;50.848;-1.216;2022-08-23T15:35:59;25.70;99.90
36446;DHT22;22472;50.848;-1.216;2022-08-23T15:38:30;25.30;99.90
36446;DHT22;22472;50.848;-1.216;2022-08-23T15:41:01;25.10;99.90
36446;DHT22;22472;50.848;-1.216;2022-08-23T15:43:29;24.90;99.90
36446;DHT22;22472;50.848;-1.216;2022-08-23T15:45:56;24.50;99.90
36446;DHT22;22472;50.848;-1.216;2022-08-23T15:48:26;24.40;99.90
36446;DHT22;22472;50.848;-1.216;2022-08-23T15:50:57;24.30;99.90
36446;DHT22;22472;50.848;-1.216;2022-08-23T15:53:24;24.10;99.90